Time;durP1;ratioP1;P1;durP2;ratioP2;P2;SDS_P1;SDS_P2;PMS_P1;PMS_P2;Temp;Humidity;BMP_temperature;BMP_pressure;BME280_temperature;BME280_humidity;BME280_pressure;Samples;Min_cycle;Max_cycle;Signal;HPM_P1;HPM_P2
2022/12/20 00:01:52;;;;;;;13.35;7.35;;;9.00;99.90;;;;;;4938188;28;93806;-32
2022/12/20 00:04:17;;;;;;;7.85;6.95;;;8.90;99.90;;;;;;4939185;28;94698;-33
2022/12/20 00:06:43;;;;;;;7.40;6.53;;;8.90;99.90;;;;;;4940676;28;94629;-33
2022/12/20 00:09:10;;;;;;;8.18;6.18;;;8.80;99.90;;;;;;4940693;28;92248;-33
2022/12/20 00:11:38;;;;;;;7.90;7.18;;;8.80;99.90;;;;;;4938918;28;94838;-33
2022/12/20 00:14:04;;;;;;;7.55;6.38;;;8.80;99.90;;;;;;4939468;28;94883;-35
2022/12/20 00:16:30;;;;;;;7.03;6.40;;;8.70;99.90;;;;;;4940645;28;94737;-32
2022/12/20 00:18:58;;;;;;;8.00;6.45;;;8.70;99.90;;;;;;4933875;28;93949;-32
2022/12/20 00:21:25;;;;;;;11.60;6.60;;;8.70;99.90;;;;;;4933378;28;92149;-33
2022/12/20 00:23:51;;;;;;;10.18;5.97;;;8.80;99.90;;;;;;4938990;28;95952;-31
2022/12/20 00:26:20;;;;;;;10.90;7.18;;;8.70;99.90;;;;;;4939281;28;97533;-32
2022/12/20 00:28:46;;;;;;;10.85;7.35;;;8.80;99.90;;;;;;4938872;28;92182;-33
2022/12/20 00:31:13;;;;;;;9.50;7.00;;;8.90;99.90;;;;;;4940374;28;93059;-36
2022/12/20 00:33:39;;;;;;;8.13;7.10;;;8.90;99.90;;;;;;4939372;28;94032;-34
2022/12/20 00:36:07;;;;;;;7.90;7.10;;;8.90;99.90;;;;;;4937745;28;94397;-32
2022/12/20 00:38:34;;;;;;;9.27;6.85;;;8.80;99.90;;;;;;4938715;28;94211;-35
2022/12/20 00:41:24;;;;;;;11.70;6.60;;;8.80;99.90;;;;;;4940474;28;92548;-32
2022/12/20 00:43:50;;;;;;;8.80;7.03;;;8.90;99.90;;;;;;4939634;28;94586;-31
2022/12/20 00:46:18;;;;;;;6.60;6.00;;;9.00;99.90;;;;;;4939443;28;94868;-31
2022/12/20 00:48:43;;;;;;;10.35;6.00;;;9.00;99.90;;;;;;4938441;28;94306;-33
2022/12/20 00:51:11;;;;;;;10.48;6.47;;;8.90;99.90;;;;;;4938779;28;94387;-33
2022/12/20 00:53:38;;;;;;;11.55;6.82;;;8.90;99.90;;;;;;4939225;28;94738;-32
2022/12/20 00:56:05;;;;;;;7.30;6.22;;;8.90;99.90;;;;;;4939798;28;94477;-32
2022/12/20 00:58:33;;;;;;;8.98;5.97;;;9.00;99.90;;;;;;4938778;28;92988;-31
2022/12/20 01:00:58;;;;;;;7.17;6.47;;;9.00;99.90;;;;;;4939325;28;94307;-32
2022/12/20 01:03:25;;;;;;;7.38;5.63;;;9.00;99.90;;;;;;4939392;28;94926;-33
2022/12/20 01:05:51;;;;;;;10.70;6.38;;;9.00;99.90;;;;;;4938780;28;94102;-32
2022/12/20 01:08:17;;;;;;;9.23;7.22;;;9.00;99.90;;;;;;4939601;28;94311;-34
2022/12/20 01:10:43;;;;;;;8.68;5.72;;;9.00;99.90;;;;;;4939372;28;93783;-33
2022/12/20 01:13:08;;;;;;;8.68;6.25;;;9.00;99.90;;;;;;4937653;28;95629;-34
2022/12/20 01:15:34;;;;;;;5.88;5.35;;;9.00;99.90;;;;;;4939784;28;95207;-32
2022/12/20 01:17:59;;;;;;;9.43;6.80;;;9.00;99.90;;;;;;4938425;28;93401;-31
2022/12/20 01:20:25;;;;;;;7.55;6.75;;;8.90;99.90;;;;;;4925399;28;93962;-34
2022/12/20 01:22:50;;;;;;;7.63;6.43;;;9.00;99.90;;;;;;4938853;28;94071;-32
2022/12/20 01:25:16;;;;;;;9.95;7.63;;;9.00;99.90;;;;;;4938350;28;94912;-35
2022/12/20 01:27:42;;;;;;;8.88;6.13;;;9.00;99.90;;;;;;4939124;28;93744;-35
2022/12/20 01:30:08;;;;;;;6.82;6.22;;;9.00;99.90;;;;;;4938577;28;93266;-34
2022/12/20 01:32:33;;;;;;;9.07;6.35;;;9.00;99.90;;;;;;4938672;28;95005;-32
2022/12/20 01:34:59;;;;;;;5.68;5.10;;;9.00;99.90;;;;;;4938756;28;95172;-33
2022/12/20 01:37:25;;;;;;;6.53;5.38;;;9.00;99.90;;;;;;4938712;28;94072;-32
2022/12/20 01:39:50;;;;;;;8.35;6.85;;;9.00;99.90;;;;;;4938972;28;93024;-32
2022/12/20 01:42:16;;;;;;;7.15;6.45;;;9.00;99.90;;;;;;4938147;28;94822;-33
2022/12/20 01:44:42;;;;;;;8.50;5.45;;;9.00;99.90;;;;;;4938707;28;93628;-33
2022/12/20 01:47:08;;;;;;;6.82;6.05;;;9.00;99.90;;;;;;4938288;28;92269;-32
2022/12/20 01:49:39;;;;;;;7.88;5.63;;;9.10;99.90;;;;;;4936641;28;94072;-35
2022/12/20 01:52:17;;;;;;;6.00;5.47;;;9.10;99.90;;;;;;4939039;28;94998;-31
2022/12/20 01:54:50;;;;;;;10.83;6.73;;;9.10;99.90;;;;;;4938503;28;94472;-32
2022/12/20 01:57:28;;;;;;;5.95;5.07;;;9.00;99.90;;;;;;4938124;28;93881;-30
2022/12/20 01:59:55;;;;;;;6.15;5.65;;;9.00;99.90;;;;;;4929208;28;92262;-33
2022/12/20 02:02:20;;;;;;;8.57;5.40;;;9.10;99.90;;;;;;4937815;28;97022;-34
2022/12/20 02:04:46;;;;;;;13.43;5.63;;;9.10;99.90;;;;;;4923958;28;95232;-35
2022/12/20 02:07:19;;;;;;;7.88;5.55;;;9.00;99.90;;;;;;4929462;28;93697;-33
2022/12/20 02:09:45;;;;;;;6.13;5.45;;;9.10;99.90;;;;;;4937163;28;92890;-32
2022/12/20 02:12:14;;;;;;;13.02;5.45;;;9.10;99.90;;;;;;4937991;28;94788;-34
2022/12/20 02:14:55;;;;;;;6.75;6.15;;;9.10;99.90;;;;;;4932202;28;96166;-33
2022/12/20 02:17:38;;;;;;;5.72;5.10;;;9.20;99.90;;;;;;4932435;28;93648;-34
2022/12/20 02:20:25;;;;;;;7.03;5.80;;;9.10;99.90;;;;;;4938681;28;92547;-35
2022/12/20 02:23:25;;;;;;;7.10;5.03;;;9.10;99.90;;;;;;4934509;28;94482;-35
2022/12/20 02:26:16;;;;;;;5.47;4.97;;;9.10;99.90;;;;;;4932284;28;94326;-33
2022/12/20 02:29:06;;;;;;;6.97;6.10;;;9.10;99.90;;;;;;4936999;28;94694;-36
2022/12/20 02:31:39;;;;;;;7.47;6.68;;;9.20;99.90;;;;;;4937205;28;93536;-36
2022/12/20 02:34:06;;;;;;;6.07;5.20;;;9.10;99.90;;;;;;4937802;28;95431;-35
2022/12/20 02:36:32;;;;;;;6.95;6.30;;;9.20;99.90;;;;;;4937274;28;94237;-33
2022/12/20 02:38:57;;;;;;;7.32;5.82;;;9.20;99.90;;;;;;4938459;28;94624;-35
2022/12/20 02:41:32;;;;;;;6.72;5.05;;;9.20;99.90;;;;;;4922559;28;92859;-34
2022/12/20 02:46:57;;;;;;;9.25;5.82;;;9.30;99.90;;;;;;4938409;28;95072;-35
2022/12/20 02:49:27;;;;;;;5.55;5.07;;;9.30;99.90;;;;;;4938305;28;93979;-34
2022/12/20 02:51:55;;;;;;;7.60;5.18;;;9.30;99.90;;;;;;4937993;28;92383;-35
2022/12/20 02:54:21;;;;;;;8.40;5.63;;;9.30;99.90;;;;;;4936712;28;95560;-35
2022/12/20 02:57:12;;;;;;;5.47;4.97;;;9.30;99.90;;;;;;4936435;28;95840;-35
2022/12/20 02:59:54;;;;;;;5.68;4.95;;;9.30;99.90;;;;;;4937113;28;94068;-36
2022/12/20 03:02:20;;;;;;;6.30;5.72;;;9.30;99.90;;;;;;4937841;28;92737;-35
2022/12/20 03:04:47;;;;;;;5.55;4.65;;;9.30;99.90;;;;;;4936871;28;95403;-34
2022/12/20 03:07:13;;;;;;;6.63;5.35;;;9.30;99.90;;;;;;4936990;28;94672;-35
2022/12/20 03:09:41;;;;;;;6.72;5.60;;;9.30;99.90;;;;;;4938459;28;93183;-35
2022/12/20 03:12:08;;;;;;;7.32;6.07;;;9.30;99.90;;;;;;4937101;28;91511;-33
2022/12/20 03:14:33;;;;;;;5.93;5.30;;;9.30;99.90;;;;;;4929185;28;94418;-36
2022/12/20 03:16:59;;;;;;;5.28;4.88;;;9.30;99.90;;;;;;4931083;28;94406;-36
2022/12/20 03:19:25;;;;;;;7.97;5.43;;;9.40;99.90;;;;;;4936921;28;93308;-34
2022/12/20 03:21:51;;;;;;;6.18;5.57;;;9.40;99.90;;;;;;4937748;28;93095;-34
2022/12/20 03:24:17;;;;;;;9.23;6.07;;;9.30;99.90;;;;;;4937036;28;95584;-37
2022/12/20 03:26:42;;;;;;;5.55;4.97;;;9.30;99.90;;;;;;4936317;28;94819;-34
2022/12/20 03:29:08;;;;;;;6.78;5.88;;;9.30;99.90;;;;;;4937513;28;92409;-34
2022/12/20 03:31:35;;;;;;;5.60;5.07;;;9.30;99.90;;;;;;4936863;28;93721;-37
2022/12/20 03:34:00;;;;;;;6.70;6.07;;;9.30;99.90;;;;;;4936797;28;95046;-36
2022/12/20 03:36:26;;;;;;;11.15;5.90;;;9.30;99.90;;;;;;4937875;28;94872;-33
2022/12/20 03:38:52;;;;;;;6.63;5.90;;;9.30;99.90;;;;;;4940373;28;93286;-33
2022/12/20 03:41:20;;;;;;;7.00;5.80;;;9.30;99.90;;;;;;4941247;28;93828;-36
2022/12/20 03:43:46;;;;;;;5.40;4.97;;;9.30;99.90;;;;;;4940474;28;95174;-33
2022/12/20 03:46:11;;;;;;;5.93;5.43;;;9.30;99.90;;;;;;4940202;28;95933;-34
2022/12/20 03:48:37;;;;;;;6.78;6.00;;;9.20;99.90;;;;;;4940819;28;94692;-37
2022/12/20 03:51:03;;;;;;;6.90;5.28;;;9.20;99.90;;;;;;4940010;28;92751;-34
2022/12/20 03:53:29;;;;;;;11.45;5.97;;;9.20;99.90;;;;;;4939380;28;94910;-36
2022/12/20 03:55:55;;;;;;;7.18;5.78;;;9.10;99.90;;;;;;4941138;28;94878;-34
2022/12/20 03:58:20;;;;;;;5.63;5.13;;;9.10;99.90;;;;;;4940200;28;92110;-36
2022/12/20 04:00:46;;;;;;;5.43;4.93;;;9.20;99.90;;;;;;4940643;28;92102;-35
2022/12/20 04:03:12;;;;;;;7.75;5.93;;;9.10;99.90;;;;;;4939535;28;94656;-35
2022/12/20 04:05:38;;;;;;;7.65;5.32;;;9.20;99.90;;;;;;4939957;28;94237;-37
2022/12/20 04:08:03;;;;;;;9.00;5.45;;;9.30;99.90;;;;;;4940236;28;95503;-34
2022/12/20 04:10:29;;;;;;;6.00;5.38;;;9.30;99.90;;;;;;4940032;28;93324;-36
2022/12/20 04:12:55;;;;;;;6.10;5.30;;;9.30;99.90;;;;;;4940453;28;93229;-34
2022/12/20 04:15:20;;;;;;;5.75;5.25;;;9.30;99.90;;;;;;4926249;28;94609;-36
2022/12/20 04:17:46;;;;;;;6.63;5.80;;;9.30;99.90;;;;;;4940090;28;93980;-36
2022/12/20 04:20:19;;;;;;;7.80;6.15;;;9.30;99.90;;;;;;4939629;28;93225;-38
2022/12/20 04:22:49;;;;;;;5.47;4.93;;;9.40;99.90;;;;;;4939176;28;94831;-34
2022/12/20 04:25:17;;;;;;;5.90;5.18;;;9.40;99.90;;;;;;4940066;28;94424;-35
2022/12/20 04:27:42;;;;;;;9.07;6.25;;;9.40;99.90;;;;;;4940036;28;92595;-34
2022/12/20 04:30:09;;;;;;;7.65;6.07;;;9.30;99.90;;;;;;4940454;28;94490;-35
2022/12/20 04:32:35;;;;;;;7.40;6.28;;;9.40;99.90;;;;;;4938708;28;97229;-34
2022/12/20 04:35:00;;;;;;;7.25;6.10;;;9.40;99.90;;;;;;4938843;28;95044;-33
2022/12/20 04:37:26;;;;;;;7.80;5.80;;;9.40;99.90;;;;;;4939247;28;92834;-37
2022/12/20 04:39:52;;;;;;;5.75;5.20;;;9.40;99.90;;;;;;4940058;28;94444;-35
2022/12/20 04:42:17;;;;;;;6.82;5.70;;;9.40;99.90;;;;;;4938902;28;95035;-35
2022/12/20 04:44:43;;;;;;;6.90;4.93;;;9.40;99.90;;;;;;4939528;28;94137;-34
2022/12/20 04:47:09;;;;;;;7.47;5.70;;;9.40;99.90;;;;;;4938352;28;93925;-34
2022/12/20 04:49:35;;;;;;;7.82;6.35;;;9.40;99.90;;;;;;4939437;28;93631;-37
2022/12/20 04:53:46;;;;;;;19.27;6.88;;;9.30;99.90;;;;;;4939063;28;94836;-36
2022/12/20 04:54:46;;;;;;;6.80;6.13;;;9.40;99.90;;;;;;4938859;28;94964;-36
2022/12/20 04:57:12;;;;;;;8.88;6.15;;;9.30;99.90;;;;;;4939371;28;93903;-35
2022/12/20 04:59:38;;;;;;;7.22;4.97;;;9.40;99.90;;;;;;4939568;28;94479;-36
2022/12/20 05:02:04;;;;;;;9.27;5.85;;;9.40;99.90;;;;;;4939231;28;94669;-38
2022/12/20 05:04:29;;;;;;;6.38;5.78;;;9.50;99.90;;;;;;4938952;28;95076;-34
2022/12/20 05:06:55;;;;;;;6.47;5.60;;;9.50;99.90;;;;;;4938843;28;94348;-34
2022/12/20 05:09:21;;;;;;;7.88;5.18;;;9.50;99.90;;;;;;4939610;28;93705;-34
2022/12/20 05:11:46;;;;;;;5.60;4.97;;;9.60;99.90;;;;;;4938668;28;94646;-36
2022/12/20 05:14:12;;;;;;;6.35;5.63;;;9.60;99.90;;;;;;4935149;28;94712;-35
2022/12/20 05:16:38;;;;;;;7.10;5.97;;;9.70;99.90;;;;;;4930089;28;94168;-34
2022/12/20 05:19:03;;;;;;;7.35;5.20;;;9.70;99.90;;;;;;4938971;28;93727;-35
2022/12/20 05:26:59;;;;;;;5.50;5.00;;;9.80;99.90;;;;;;4939665;28;93762;-34
2022/12/20 05:29:24;;;;;;;9.02;5.55;;;9.90;99.90;;;;;;4938128;28;94331;-35
2022/12/20 05:31:50;;;;;;;11.27;5.15;;;9.90;99.90;;;;;;4938603;28;95233;-36
2022/12/20 05:34:16;;;;;;;8.90;5.32;;;9.90;99.90;;;;;;4939350;28;94944;-34
2022/12/20 05:36:41;;;;;;;8.23;5.45;;;9.90;99.90;;;;;;4938971;28;94452;-34
2022/12/20 05:39:07;;;;;;;6.88;5.22;;;9.90;99.90;;;;;;4939302;28;91406;-35
2022/12/20 05:41:32;;;;;;;7.93;4.55;;;10.00;99.90;;;;;;4937652;28;93739;-36
2022/12/20 05:43:58;;;;;;;5.47;4.43;;;10.00;99.90;;;;;;4938342;28;94001;-36
2022/12/20 05:46:24;;;;;;;6.00;4.57;;;10.00;99.90;;;;;;4938007;28;95323;-36
2022/12/20 05:48:49;;;;;;;8.27;5.50;;;10.00;99.90;;;;;;4938207;28;93204;-35
2022/12/20 05:51:15;;;;;;;5.20;4.68;;;10.00;99.90;;;;;;4938215;28;94794;-35
2022/12/20 05:53:40;;;;;;;5.40;4.47;;;10.10;99.90;;;;;;4937522;28;94601;-34
2022/12/20 05:56:06;;;;;;;5.13;4.63;;;10.10;99.90;;;;;;4939426;28;93891;-35
2022/12/20 05:58:32;;;;;;;13.00;4.38;;;10.10;99.90;;;;;;4937800;28;95182;-34
2022/12/20 06:01:03;;;;;;;4.90;4.45;;;10.20;99.90;;;;;;4938817;28;94835;-34
2022/12/20 06:03:29;;;;;;;5.30;4.80;;;10.20;99.90;;;;;;4937842;28;93882;-34
2022/12/20 06:05:55;;;;;;;6.38;4.82;;;10.30;99.90;;;;;;4938456;28;93659;-36
2022/12/20 06:08:22;;;;;;;7.03;4.93;;;10.30;99.90;;;;;;4937832;28;93185;-37
2022/12/20 06:10:48;;;;;;;8.98;4.97;;;10.20;99.90;;;;;;4937641;28;95072;-35
2022/12/20 06:13:13;;;;;;;6.45;5.18;;;10.30;99.90;;;;;;4936913;28;95567;-34
2022/12/20 06:15:39;;;;;;;6.80;5.10;;;10.30;99.90;;;;;;4924225;28;93386;-36
2022/12/20 06:18:06;;;;;;;8.00;4.95;;;10.40;99.90;;;;;;4938317;28;92910;-36
2022/12/20 06:20:33;;;;;;;4.82;4.32;;;10.40;99.90;;;;;;4937819;28;96363;-33
2022/12/20 06:22:59;;;;;;;9.15;4.72;;;10.30;99.90;;;;;;4938160;28;94572;-36
2022/12/20 06:25:24;;;;;;;6.85;5.05;;;10.30;99.90;;;;;;4938606;28;93128;-33
2022/12/20 06:27:50;;;;;;;6.45;4.28;;;10.30;99.90;;;;;;4938166;28;91958;-33
2022/12/20 06:30:16;;;;;;;13.45;5.97;;;10.30;99.90;;;;;;4937393;28;96446;-32
2022/12/20 06:32:42;;;;;;;7.18;5.53;;;10.20;99.90;;;;;;4937517;28;93120;-32
2022/12/20 06:35:08;;;;;;;4.70;4.15;;;10.20;99.90;;;;;;4936967;28;95310;-32
2022/12/20 06:37:35;;;;;;;4.95;4.45;;;10.40;99.90;;;;;;4938027;28;92131;-34
2022/12/20 06:40:01;;;;;;;8.55;4.75;;;10.40;99.90;;;;;;4937902;28;94583;-32
2022/12/20 06:42:27;;;;;;;7.80;5.22;;;10.30;99.90;;;;;;4935996;28;93770;-32
2022/12/20 06:44:52;;;;;;;5.13;4.43;;;10.30;99.90;;;;;;4938323;28;95111;-35
2022/12/20 06:47:18;;;;;;;5.18;4.68;;;10.30;99.90;;;;;;4938000;28;94007;-34
2022/12/20 06:49:44;;;;;;;5.00;4.60;;;10.30;99.90;;;;;;4937321;28;94755;-33
2022/12/20 06:52:09;;;;;;;4.70;4.30;;;10.30;99.90;;;;;;4938209;28;95120;-33
2022/12/20 06:54:35;;;;;;;6.80;5.93;;;10.30;99.90;;;;;;4936934;28;94007;-33
2022/12/20 06:57:01;;;;;;;6.80;6.13;;;10.20;99.90;;;;;;4938056;28;92319;-33
2022/12/20 06:59:26;;;;;;;6.38;5.20;;;10.20;99.90;;;;;;4936968;28;95895;-32
2022/12/20 07:01:52;;;;;;;8.82;5.68;;;10.20;99.90;;;;;;4937652;28;95324;-32
2022/12/20 07:04:18;;;;;;;7.00;5.38;;;10.10;99.90;;;;;;4937960;28;94436;-33
2022/12/20 07:06:44;;;;;;;10.27;5.32;;;10.20;99.90;;;;;;4937053;28;94362;-36
2022/12/20 07:09:10;;;;;;;6.30;5.72;;;10.10;99.90;;;;;;4937444;28;95463;-31
2022/12/20 07:11:36;;;;;;;7.30;5.70;;;10.10;99.90;;;;;;4941490;28;94405;-31
2022/12/20 07:14:02;;;;;;;7.30;6.28;;;9.90;99.90;;;;;;4941717;28;92097;-33
2022/12/20 07:16:28;;;;;;;6.43;5.43;;;9.90;99.90;;;;;;4933547;28;93358;-31
2022/12/20 07:18:54;;;;;;;6.15;5.35;;;9.90;99.90;;;;;;4944112;28;95161;-35
2022/12/20 07:21:20;;;;;;;7.38;6.63;;;9.80;99.90;;;;;;4943749;28;94085;-34
2022/12/20 07:23:46;;;;;;;6.85;5.93;;;9.90;99.90;;;;;;4943052;28;94476;-31
2022/12/20 07:26:13;;;;;;;7.75;6.35;;;9.90;99.90;;;;;;4943722;28;92791;-34
2022/12/20 07:28:40;;;;;;;7.00;6.30;;;9.90;99.90;;;;;;4943190;28;94418;-32
2022/12/20 07:31:05;;;;;;;6.20;5.45;;;9.90;99.90;;;;;;4942911;28;94365;-33
2022/12/20 07:33:32;;;;;;;7.45;5.70;;;10.00;99.90;;;;;;4956327;28;93478;-35
2022/12/20 07:36:07;;;;;;;7.30;5.55;;;9.90;99.90;;;;;;4956987;28;93433;-32
2022/12/20 07:38:34;;;;;;;7.32;6.63;;;9.90;99.90;;;;;;4954727;28;94759;-34
2022/12/20 07:41:05;;;;;;;10.98;6.53;;;9.90;99.90;;;;;;4957916;28;94565;-35
2022/12/20 07:43:31;;;;;;;12.20;6.43;;;10.00;99.90;;;;;;4948872;28;94984;-34
2022/12/20 07:45:56;;;;;;;8.52;6.78;;;10.00;99.90;;;;;;4958145;28;93510;-31
2022/12/20 07:48:23;;;;;;;8.15;6.68;;;9.90;99.90;;;;;;4943375;28;95815;-32
2022/12/20 07:50:52;;;;;;;9.35;6.47;;;9.90;99.90;;;;;;4958163;28;95852;-31
2022/12/20 07:53:20;;;;;;;7.72;5.63;;;9.90;99.90;;;;;;4954189;28;93148;-34
2022/12/20 07:55:47;;;;;;;7.38;6.68;;;9.90;99.90;;;;;;4957257;28;92518;-33
2022/12/20 07:58:13;;;;;;;9.68;6.70;;;9.90;99.90;;;;;;4954942;28;94262;-33
2022/12/20 08:00:39;;;;;;;8.80;7.10;;;9.90;99.90;;;;;;4955086;28;94341;-32
2022/12/20 08:03:05;;;;;;;8.82;6.57;;;9.90;99.90;;;;;;4958217;28;92131;-33
2022/12/20 08:05:32;;;;;;;9.57;6.60;;;9.80;99.90;;;;;;4953179;28;94228;-32
2022/12/20 08:07:58;;;;;;;10.77;6.20;;;9.90;99.90;;;;;;4957551;28;94934;-33
2022/12/20 08:10:25;;;;;;;6.18;5.68;;;9.80;99.90;;;;;;4953191;28;94251;-34
2022/12/20 08:12:50;;;;;;;7.07;6.38;;;9.90;99.90;;;;;;4957095;28;94531;-33
2022/12/20 08:15:18;;;;;;;6.18;5.13;;;9.90;99.90;;;;;;4945239;28;92587;-33
2022/12/20 08:17:43;;;;;;;7.13;6.25;;;9.90;99.90;;;;;;4943717;28;95284;-32
2022/12/20 08:20:09;;;;;;;6.88;5.72;;;9.90;99.90;;;;;;4943044;28;93565;-33
2022/12/20 08:22:35;;;;;;;7.78;5.82;;;10.00;99.90;;;;;;4940796;28;95024;-32
2022/12/20 08:25:01;;;;;;;6.38;5.78;;;10.00;99.90;;;;;;4940537;28;93763;-35
2022/12/20 08:27:27;;;;;;;8.65;5.85;;;10.10;99.90;;;;;;4940141;28;94796;-34
2022/12/20 08:29:52;;;;;;;6.38;5.75;;;10.10;99.90;;;;;;4932715;28;94781;-33
2022/12/20 08:32:18;;;;;;;10.13;5.50;;;10.10;99.90;;;;;;4919756;28;94560;-34
2022/12/20 08:34:44;;;;;;;9.95;5.10;;;10.20;99.90;;;;;;4919898;28;93200;-33
2022/12/20 08:37:10;;;;;;;6.97;4.63;;;10.20;99.90;;;;;;4930728;28;96126;-35
2022/12/20 08:39:36;;;;;;;5.20;4.38;;;10.20;99.90;;;;;;4939803;28;95671;-33
2022/12/20 08:42:04;;;;;;;5.78;5.18;;;10.20;99.90;;;;;;4940302;28;94503;-33
2022/12/20 08:44:29;;;;;;;5.57;5.00;;;10.30;99.90;;;;;;4926573;28;94351;-33
2022/12/20 08:46:55;;;;;;;5.57;3.90;;;10.40;99.90;;;;;;4921146;28;93670;-33
2022/12/20 08:49:21;;;;;;;5.28;4.78;;;10.30;99.90;;;;;;4924162;28;93120;-32
2022/12/20 08:51:46;;;;;;;7.03;5.20;;;10.30;99.90;;;;;;4922067;28;93208;-35
2022/12/20 08:54:12;;;;;;;7.13;5.22;;;10.40;99.90;;;;;;4920621;28;92727;-33
2022/12/20 08:56:37;;;;;;;5.53;5.00;;;10.30;99.90;;;;;;4946086;28;95120;-33
2022/12/20 08:59:03;;;;;;;6.13;4.68;;;10.40;99.90;;;;;;4954756;28;95112;-32
2022/12/20 09:01:32;;;;;;;5.53;4.85;;;10.40;99.90;;;;;;4953516;28;93586;-34
2022/12/20 09:03:58;;;;;;;6.93;5.18;;;10.40;99.90;;;;;;4951595;28;92901;-34
2022/12/20 09:06:24;;;;;;;5.68;4.78;;;10.40;99.90;;;;;;4932901;28;95061;-37
2022/12/20 09:08:50;;;;;;;5.63;5.07;;;10.40;99.90;;;;;;4936556;28;94664;-33
2022/12/20 09:11:21;;;;;;;7.75;4.93;;;10.40;99.90;;;;;;4946946;28;93466;-33
2022/12/20 09:13:49;;;;;;;5.53;4.97;;;10.40;99.90;;;;;;4944577;28;94394;-32
2022/12/20 09:16:19;;;;;;;5.78;4.97;;;10.40;99.90;;;;;;4922636;28;94711;-33
2022/12/20 09:18:48;;;;;;;7.53;4.68;;;10.50;99.90;;;;;;4936376;28;95065;-31
2022/12/20 09:21:14;;;;;;;4.78;4.38;;;10.60;99.90;;;;;;4923487;28;93315;-34
2022/12/20 09:23:40;;;;;;;5.10;4.38;;;10.60;99.90;;;;;;4936011;28;92926;-33
2022/12/20 09:26:12;;;;;;;8.98;5.32;;;10.60;99.90;;;;;;4931509;28;95257;-33
2022/12/20 09:28:38;;;;;;;8.32;5.03;;;10.70;99.90;;;;;;4953802;22;94963;-32
2022/12/20 09:31:07;;;;;;;7.72;4.57;;;10.70;99.90;;;;;;4938463;28;94028;-32
2022/12/20 09:33:33;;;;;;;5.93;5.32;;;10.60;99.90;;;;;;4935803;28;94368;-34
2022/12/20 09:36:00;;;;;;;6.75;4.85;;;10.60;99.90;;;;;;4935740;28;95885;-32
2022/12/20 09:38:26;;;;;;;7.60;5.30;;;10.50;99.90;;;;;;4935191;28;96179;-34
2022/12/20 09:40:54;;;;;;;10.82;5.22;;;10.60;99.90;;;;;;4939191;28;94156;-34
2022/12/20 09:43:21;;;;;;;13.05;5.43;;;10.60;99.90;;;;;;4940047;28;93282;-37
2022/12/20 09:45:54;;;;;;;8.32;5.05;;;10.60;99.90;;;;;;4936312;28;95610;-33
2022/12/20 09:48:31;;;;;;;7.30;5.05;;;10.60;99.90;;;;;;4936618;28;95354;-32
2022/12/20 09:51:03;;;;;;;5.38;4.78;;;10.50;99.90;;;;;;4943590;28;93142;-35
2022/12/20 09:53:45;;;;;;;5.90;5.30;;;10.50;99.90;;;;;;4935696;28;93537;-32
2022/12/20 09:56:19;;;;;;;6.13;4.78;;;10.50;99.90;;;;;;4935161;28;94030;-33
2022/12/20 09:59:03;;;;;;;5.70;4.78;;;10.50;99.90;;;;;;4935528;28;94951;-35
2022/12/20 10:01:32;;;;;;;9.32;6.20;;;10.60;99.90;;;;;;4935679;28;93536;-34
2022/12/20 10:04:04;;;;;;;6.13;4.95;;;10.60;99.90;;;;;;4938636;28;94327;-33
2022/12/20 10:06:39;;;;;;;5.82;5.22;;;10.60;99.90;;;;;;4934823;28;94753;-34
2022/12/20 10:09:30;;;;;;;7.10;4.57;;;10.50;99.90;;;;;;4938038;28;94845;-34
2022/12/20 10:12:20;;;;;;;9.43;5.72;;;10.50;99.90;;;;;;4913886;28;92334;-35
2022/12/20 10:15:19;;;;;;;5.95;4.93;;;10.60;99.90;;;;;;4934572;28;94231;-33
2022/12/20 10:18:05;;;;;;;6.70;5.72;;;10.50;99.90;;;;;;4937451;28;95116;-34
2022/12/20 10:20:59;;;;;;;9.00;6.03;;;10.40;99.90;;;;;;4941420;28;95367;-33
2022/12/20 10:23:41;;;;;;;7.60;5.88;;;10.50;99.90;;;;;;4935717;28;93989;-35
2022/12/20 10:26:12;;;;;;;7.13;5.15;;;10.40;99.90;;;;;;4935731;28;92990;-32
2022/12/20 10:28:39;;;;;;;13.35;5.90;;;10.30;99.90;;;;;;4922303;28;95799;-32
2022/12/20 10:31:16;;;;;;;8.27;5.50;;;10.30;99.90;;;;;;4937354;28;93108;-34
2022/12/20 10:33:43;;;;;;;6.03;5.45;;;10.30;99.90;;;;;;4936936;28;92383;-35
2022/12/20 10:36:23;;;;;;;6.65;5.35;;;10.20;99.90;;;;;;4938344;28;92661;-34
2022/12/20 10:38:51;;;;;;;7.43;6.68;;;10.30;99.90;;;;;;4936264;28;94408;-36
2022/12/20 10:41:26;;;;;;;6.65;5.45;;;10.10;99.90;;;;;;4935341;28;95633;-34
2022/12/20 10:43:58;;;;;;;8.73;6.40;;;10.10;99.90;;;;;;4935052;28;95215;-33
2022/12/20 10:46:38;;;;;;;5.65;5.18;;;10.10;99.90;;;;;;4937230;28;92532;-36
2022/12/20 10:49:29;;;;;;;7.10;6.03;;;10.00;99.90;;;;;;4939152;28;94768;-33
2022/12/20 10:52:09;;;;;;;6.50;6.00;;;10.00;99.90;;;;;;4938246;28;95371;-32
2022/12/20 10:54:36;;;;;;;6.32;5.60;;;10.00;99.90;;;;;;4940833;28;94671;-33
2022/12/20 10:57:26;;;;;;;5.25;4.70;;;10.00;99.90;;;;;;4938846;28;93878;-35
2022/12/20 11:00:00;;;;;;;5.25;4.78;;;10.10;99.90;;;;;;4941293;28;94804;-32
2022/12/20 11:02:33;;;;;;;6.97;6.28;;;10.00;99.90;;;;;;4947409;28;96502;-33
2022/12/20 11:05:02;;;;;;;6.07;5.50;;;10.00;99.90;;;;;;4954138;28;92597;-33
2022/12/20 11:07:30;;;;;;;6.05;5.45;;;10.00;99.90;;;;;;4949229;28;92681;-31
2022/12/20 11:10:20;;;;;;;8.13;5.70;;;10.10;99.90;;;;;;4952851;28;94791;-34
2022/12/20 11:13:00;;;;;;;6.32;4.88;;;10.10;99.90;;;;;;4949021;28;95850;-33
2022/12/20 11:15:28;;;;;;;8.05;5.40;;;10.10;99.90;;;;;;4930991;28;93649;-35
2022/12/20 11:18:15;;;;;;;;;;;10.10;99.90;;;;;;4939570;28;94312;-32
2022/12/20 11:20:50;;;;;;;7.15;5.95;;;10.10;99.90;;;;;;4943546;28;95498;-32
2022/12/20 11:23:35;;;;;;;8.13;5.55;;;10.10;99.90;;;;;;4938804;28;94641;-34
2022/12/20 11:26:21;;;;;;;6.57;5.50;;;10.10;99.90;;;;;;4936414;28;93262;-33
2022/12/20 11:28:56;;;;;;;9.82;4.93;;;10.10;99.90;;;;;;4948357;28;92365;-32
2022/12/20 11:31:27;;;;;;;9.80;5.53;;;10.20;99.90;;;;;;4950178;28;94663;-33
2022/12/20 11:34:09;;;;;;;7.60;6.07;;;10.20;99.90;;;;;;4944541;28;93950;-32
2022/12/20 11:37:13;;;;;;;6.32;5.72;;;10.30;99.90;;;;;;4942765;28;93074;-31
2022/12/20 11:39:54;;;;;;;5.93;5.43;;;10.30;99.90;;;;;;4947612;28;93131;-32
2022/12/20 11:42:26;;;;;;;8.98;5.55;;;10.30;99.90;;;;;;4961944;28;95316;-33
2022/12/20 11:45:04;;;;;;;5.80;5.22;;;10.30;99.90;;;;;;4962139;28;94584;-31
2022/12/20 11:47:29;;;;;;;6.47;5.88;;;10.30;99.90;;;;;;4965665;28;92255;-34
2022/12/20 11:50:34;;;;;;;5.82;4.55;;;10.30;99.90;;;;;;4962550;28;94776;-32
2022/12/20 11:53:11;;;;;;;9.32;6.00;;;10.20;99.90;;;;;;4962171;28;94933;-36
2022/12/20 11:55:41;;;;;;;7.05;6.28;;;10.20;99.90;;;;;;4961665;28;95777;-32
2022/12/20 11:58:31;;;;;;;7.90;5.55;;;10.20;99.90;;;;;;4957959;28;93375;-34
2022/12/20 12:00:59;;;;;;;5.90;4.90;;;10.20;99.90;;;;;;4957724;28;93259;-33
2022/12/20 12:03:34;;;;;;;6.15;5.30;;;10.20;99.90;;;;;;4964023;28;97047;-33
2022/12/20 12:06:12;;;;;;;6.25;5.18;;;10.30;99.90;;;;;;4967757;28;95354;-32
2022/12/20 12:08:51;;;;;;;7.45;4.90;;;10.20;99.90;;;;;;4967108;28;92571;-32
2022/12/20 12:11:24;;;;;;;6.68;6.07;;;10.20;99.90;;;;;;4966019;28;93421;-34
2022/12/20 12:13:50;;;;;;;7.53;5.05;;;10.20;99.90;;;;;;4961176;28;95035;-34
2022/12/20 12:16:23;;;;;;;10.55;5.40;;;10.20;99.90;;;;;;4931897;28;94537;-32
2022/12/20 12:18:49;;;;;;;6.28;5.35;;;10.10;99.90;;;;;;4947213;28;93793;-33
2022/12/20 12:21:28;;;;;;;6.43;5.50;;;10.20;99.90;;;;;;4948152;28;92990;-33
2022/12/20 12:24:04;;;;;;;5.00;4.50;;;10.20;99.90;;;;;;4943856;28;95050;-36
2022/12/20 12:26:35;;;;;;;8.30;5.63;;;10.20;99.90;;;;;;4941375;28;94790;-36
2022/12/20 12:29:08;;;;;;;6.90;5.45;;;10.20;99.90;;;;;;4937344;28;93911;-34
2022/12/20 12:31:43;;;;;;;6.85;5.85;;;10.10;99.90;;;;;;4937163;28;92666;-33
2022/12/20 12:34:35;;;;;;;6.60;5.88;;;10.10;99.90;;;;;;4937623;28;95232;-34
2022/12/20 12:37:00;;;;;;;6.90;5.45;;;10.10;99.90;;;;;;4937139;28;95096;-34
2022/12/20 12:39:56;;;;;;;6.00;5.38;;;10.10;99.90;;;;;;4937629;28;94767;-33
2022/12/20 12:42:59;;;;;;;8.18;5.40;;;10.10;99.90;;;;;;4938288;28;92139;-35
2022/12/20 12:45:34;;;;;;;5.75;5.10;;;10.10;99.90;;;;;;4937285;28;94817;-33
2022/12/20 12:48:20;;;;;;;8.85;6.03;;;10.10;99.90;;;;;;4938742;28;95242;-32
2022/12/20 12:50:53;;;;;;;6.88;5.65;;;10.10;99.90;;;;;;4938262;28;94534;-33
2022/12/20 12:53:34;;;;;;;10.57;6.38;;;10.10;99.90;;;;;;4937487;28;93899;-35
2022/12/20 12:56:26;;;;;;;7.85;5.88;;;10.10;99.90;;;;;;4936836;28;95618;-33
2022/12/20 12:59:10;;;;;;;6.72;5.90;;;10.10;99.90;;;;;;4937735;28;95643;-33
2022/12/20 13:01:48;;;;;;;6.28;5.78;;;10.10;99.90;;;;;;4936959;28;93276;-33
2022/12/20 13:04:25;;;;;;;7.72;6.88;;;10.10;99.90;;;;;;4938447;28;94345;-34
2022/12/20 13:06:58;;;;;;;12.63;7.10;;;10.10;99.90;;;;;;4937364;28;94629;-35
2022/12/20 13:09:26;;;;;;;8.00;6.18;;;10.10;99.90;;;;;;4936165;28;94882;-37
2022/12/20 13:11:53;;;;;;;;;;;10.10;99.90;;;;;;4938298;28;92233;-33
2022/12/20 13:14:24;;;;;;;6.57;5.97;;;10.10;99.90;;;;;;4934213;28;91415;-35